Scroll down
FLIGHT INFORMATION
American Airlines

AAL1052

At Arrival Gate

KAUS
 KORD
DATE: 2021-05-07
GATE: G3
GATE DEPARTURE: 22:28
TAKEOFF: 22:43
DATE: 2021-05-08
GATE: B10
LANDING: 00:54
GATE ARRIVAL: 01:02
FLIGHT DATA
Crew: 
Speed: 
467 kts
Altitude: 
39,111 ft
Stage Length: 
850.3 nm
Block Time: 
2.5 hrs
Flight Time: 
2.2 hrs
Fuel Used: 
13,136 lb
Cleared Route: KAUS WLMRT ELOEL KLNGR FUZ MLC SGF WELTS MCDEE CASHN VINCA MAROC TRICH TRTLL HIHRY RINNO JORJO MONKZ TONIE RRUDA RW10C
TRACK DATA
50,000 ft 1,000 kts
AIRCRAFT INFO AND CUMULATIVE STATS
Aircraft Type: 
B738BW
Registration: 
SELCAL: 
DEHJ
MSN/LN: 
31165 / 4373
Operator: 
Total Flights: 
8
Total Block Time: 
20.4 hrs
Total Flight Time: 
17.5 hrs
Total Fuel Used: 
104,982 lb
DATALINK LOG | Newest first | Current as of: 2021-09-20 16:26:44
LABEL SEQUENCE CONTENT Dn/Up
QD034401:02 10.1▼ Dn
QC553800:54▼ Dn
5Z43288 MAY 21 00:42:08z / FLT DECK GOOD / ACF POS GOOD / GRND SERVICES GOOD / MAINT GOOD▼ Dn
GA4338GATE B10▲ Up
GR4327KORD 00:52 MAAS 00 YP/UM 01/02 WCHR/S/C 03/04/05 DIPL/VIP YES▼ Dn
2U4051KORD 072351Z 03015KT 10SM SCT070 08/02 A3004 RMK AO2 SLP176 T00780022 10156 20078 51012▲ Up
2S4126KORD▼ Dn
QB444022:43▼ Dn
QA302622:28 23.3▼ Dn
A31823CLEARED TO KORD VIA ELOEL3 KLNGR FUZ MLC SGF WELTS TRTLL6 . SQUAWK 4140.▲ Up
5U1630KORD 080216Z 04008KT 10SM SCT060 11/01 A3001▲ Up
2U1626KAUS 072153Z 12010KT 10SM BKN250 29/15 A3004 RMK AO2 SLP166 T02890150▲ Up
5S1821KORD▼ Dn
2S1821KAUS▼ Dn
Q01713[LINK ACK]▲ Up
Q01713[LINK TEST]▼ Dn


AIRCRAFT HISTORY
FLIGHT DATE FLIGHT NO. ORIGIN DESTINATION CLEARED ROUTE BLOCK TIME FLIGHT TIME FUEL USED PILOT
2021-08-29AAL2381KORD KMSP KORD MYKIE MONNY MNOSO KICKR OOPEE LAZYY BLUEM HHAMR FARBO NOFLD CANDD HAPTN AABEZ RW30L1.9 hrs1.1 hrs3,660 lbGeorge
2021-05-22AAL1029KLAX KORD KLAX DOCKR WEILR SHAEF PEVEE HOLTZ DOTSS EYEDL HOMER CLEEE PKE LANCY DRK PYRIT ZUN ABQ TCC VARNR ICT ROKNE DOSOA BUM SCAWT ELSTO WELTS MCDEE CASHN VINCA MAROC TRICH TRTLL HIHRY RINNO JORJO MONKZ TONIE HAZIL RW28C3.9 hrs3.6 hrs22,367 lbGeorge
2021-05-22AAL899KPHX KLAX KPHX WULKO KEENS IZZZO MESSI ESTWD MCQWN MDLER MNROE HLYWD BRUEN AVATR DAAAY WADUP NEILE SEAVU HUNDA RW25L1.2 hrs1 hrs7,115 lbGeorge
2021-05-16AAL2676KMSP KPHX KMSP INUNE DWN ABR BFF DVC CORKR TENTS PANTD DUTEY MAIER BRUSR ANNTI ZILUB BRIEZ KUCOO JURAZ JAGAL RW263.6 hrs3.2 hrs18,394 lbGeorge
2021-05-16AAL4499KORD KMSP KORD PMPKN NEATO DLLAN RONIC KAMMA BEERI ROBBY KBULL ZZING HENDR CMAAC KKILR HUGGI KRISP AFTYN JONZY GREAK DOLEE ZESTY RW12R1.3 hrs1.1 hrs7,815 lbGeorge
2021-05-07AAL1052KAUS KORD KAUS WLMRT ELOEL KLNGR FUZ MLC SGF WELTS MCDEE CASHN VINCA MAROC TRICH TRTLL HIHRY RINNO JORJO MONKZ TONIE RRUDA RW10C2.5 hrs2.2 hrs13,136 lbGeorge
2021-02-27AAL565KMIA KAUS KMIA SENOY CIMBA FORKK BORLE MEAGN WINCO CHRRI DOLIE SRQ JONBU CHRGE REMIS ROZZI NAITE REDFN LEV PEKON KAPAA IAH SHYNR BOCCK IDU WLEEE BITER ISHOV BASTO RRTOO RW17L2.9 hrs2.6 hrs16,718 lbDan Downs
2021-01-04AAL104TNCM KMIA TNCM MODOR JUICE LARPP PASIC STT PALCO CHAKA SJU CORAF BEANO SAYER ZIBER CALTO HAGIT ZQA NICKO TINKY LUCSS FOWEE FLIPR LUVLY LECIT JODPO KMIA3 hrs2.7 hrs15,777 lbPaul Gollnick